createdAt,value
2019-05-14T00:00:52.205Z,43.41
2019-05-14T00:03:21.906Z,43.15
2019-05-14T00:05:51.683Z,43.08
2019-05-14T00:08:22.359Z,42.91
2019-05-14T00:10:52.050Z,42.83
2019-05-14T00:13:21.536Z,43.27
2019-05-14T00:15:51.966Z,43.96
2019-05-14T00:18:22.221Z,44.22
2019-05-14T00:20:51.184Z,44.95
2019-05-14T00:23:21.478Z,44.88
2019-05-14T00:25:52.093Z,44.59
2019-05-14T00:28:21.130Z,44.76
2019-05-14T00:30:49.624Z,44.67
2019-05-14T00:33:17.922Z,44.65
2019-05-14T00:35:46.297Z,44.65
2019-05-14T00:38:14.748Z,44.35
2019-05-14T00:40:43.068Z,44.67
2019-05-14T00:43:11.490Z,44.41
2019-05-14T00:45:41.786Z,44.77
2019-05-14T00:48:09.846Z,45.25
2019-05-14T00:50:38.192Z,45.12
2019-05-14T00:53:06.576Z,45.28
2019-05-14T00:55:34.957Z,45.39
2019-05-14T00:58:03.329Z,45.81
2019-05-14T01:00:31.953Z,46.50
2019-05-14T01:03:01.955Z,46.51
2019-05-14T01:05:32.247Z,47.09
2019-05-14T01:08:01.920Z,47.08
2019-05-14T01:10:31.377Z,47.18
2019-05-14T01:13:01.259Z,47.37
2019-05-14T01:15:32.062Z,47.45
2019-05-14T01:18:02.202Z,47.44
2019-05-14T01:20:31.958Z,47.25
2019-05-14T01:23:02.219Z,47.49
2019-05-14T01:25:31.810Z,47.93
2019-05-14T01:28:02.064Z,48.03
2019-05-14T01:30:31.910Z,48.00
2019-05-14T01:33:01.724Z,47.92
2019-05-14T01:35:31.627Z,48.04
2019-05-14T01:38:02.460Z,48.58
2019-05-14T01:40:31.564Z,48.76
2019-05-14T01:43:02.361Z,48.99
2019-05-14T01:45:31.651Z,49.20
2019-05-14T01:48:01.197Z,49.19
2019-05-14T01:50:32.017Z,49.43
2019-05-14T01:53:01.300Z,49.68
2019-05-14T01:55:32.296Z,49.26
2019-05-14T01:58:02.144Z,49.40
2019-05-14T02:00:31.400Z,49.22
2019-05-14T02:03:01.852Z,49.13
2019-05-14T02:05:31.080Z,48.99
2019-05-14T02:08:01.675Z,49.21
2019-05-14T02:10:31.492Z,49.48
2019-05-14T02:13:02.071Z,50.16
2019-05-14T02:15:39.636Z,50.36
2019-05-14T02:18:02.108Z,50.11
2019-05-14T02:20:32.034Z,49.97
2019-05-14T02:23:01.563Z,49.96
2019-05-14T02:25:32.125Z,50.17
2019-05-14T02:28:01.342Z,50.15
2019-05-14T02:30:45.080Z,50.30
2019-05-14T02:33:00.023Z,50.64
2019-05-14T02:35:29.723Z,50.54
2019-05-14T02:37:59.612Z,51.01
2019-05-14T02:40:29.513Z,50.63
2019-05-14T02:42:59.321Z,50.63
2019-05-14T02:45:30.415Z,50.45
2019-05-14T02:48:00.232Z,50.81
2019-05-14T02:50:29.452Z,50.95
2019-05-14T02:52:59.876Z,50.86
2019-05-14T02:55:29.869Z,51.03
2019-05-14T02:57:59.815Z,50.98
2019-05-14T03:00:30.154Z,51.23
2019-05-14T03:02:59.818Z,51.48
2019-05-14T03:05:29.471Z,51.31
2019-05-14T03:07:59.828Z,51.25
2019-05-14T03:10:30.125Z,51.04
2019-05-14T03:12:59.145Z,51.03
2019-05-14T03:15:29.194Z,51.15
2019-05-14T03:17:59.907Z,51.30
2019-05-14T03:20:28.905Z,51.30
2019-05-14T03:23:05.044Z,51.77
2019-05-14T03:25:30.146Z,51.77
2019-05-14T03:27:59.858Z,51.92
2019-05-14T03:30:32.137Z,52.51
2019-05-14T03:33:02.739Z,52.51
2019-05-14T03:35:40.852Z,52.43
2019-05-14T03:38:00.408Z,52.02
2019-05-14T03:40:29.358Z,52.22
2019-05-14T03:42:59.784Z,52.06
2019-05-14T03:45:30.001Z,53.38
2019-05-14T03:47:58.995Z,53.94
2019-05-14T03:50:29.806Z,54.29
2019-05-14T03:52:59.396Z,54.29
2019-05-14T03:55:29.300Z,53.55
2019-05-14T03:57:59.539Z,53.70
2019-05-14T04:00:49.991Z,53.70
2019-05-14T04:03:19.769Z,53.49
2019-05-14T04:05:49.990Z,53.28
2019-05-14T04:08:21.304Z,53.28
2019-05-14T04:10:53.976Z,53.01
2019-05-14T04:13:21.468Z,53.46
2019-05-14T04:15:50.624Z,53.38
2019-05-14T04:18:20.374Z,52.64
2019-05-14T04:20:50.443Z,52.97
2019-05-14T04:23:20.431Z,52.65
2019-05-14T04:25:51.924Z,52.65
2019-05-14T04:28:21.786Z,52.40
2019-05-14T04:31:15.229Z,52.18
2019-05-14T04:33:49.552Z,51.56
2019-05-14T04:36:19.490Z,51.56
2019-05-14T04:38:51.426Z,52.80
2019-05-14T04:41:19.628Z,52.84
2019-05-14T04:43:49.946Z,52.85
2019-05-14T04:46:19.825Z,52.85
2019-05-14T04:48:50.785Z,53.03
2019-05-14T04:51:19.868Z,53.14
2019-05-14T04:53:49.888Z,53.14
2019-05-14T04:56:19.565Z,53.45
2019-05-14T04:58:49.618Z,53.32
2019-05-14T05:01:20.655Z,53.03
2019-05-14T05:03:50.378Z,52.85
2019-05-14T05:06:19.145Z,52.84
2019-05-14T05:08:49.761Z,52.75
2019-05-14T05:11:21.085Z,52.49
2019-05-14T05:13:48.829Z,51.92
2019-05-14T05:16:19.242Z,51.87
2019-05-14T05:18:49.048Z,51.63
2019-05-14T05:21:19.229Z,51.18
2019-05-14T05:23:49.313Z,50.84
2019-05-14T05:26:19.450Z,50.44
2019-05-14T05:29:01.798Z,50.10
2019-05-14T05:31:18.651Z,49.94
2019-05-14T05:33:48.945Z,49.48
2019-05-14T05:36:18.481Z,49.06
2019-05-14T05:38:49.147Z,49.18
2019-05-14T05:41:19.042Z,49.23
2019-05-14T05:43:48.363Z,48.90
2019-05-14T05:46:19.152Z,48.94
2019-05-14T05:48:48.223Z,48.72
2019-05-14T05:51:18.755Z,48.66
2019-05-14T05:53:48.349Z,48.12
2019-05-14T05:56:18.797Z,47.41
2019-05-14T05:58:48.800Z,46.81
2019-05-14T06:01:19.507Z,47.16
2019-05-14T06:03:49.200Z,44.85
2019-05-14T06:06:19.268Z,43.22
2019-05-14T06:08:49.091Z,41.94
2019-05-14T06:11:19.336Z,40.73
2019-05-14T06:13:48.645Z,40.18
2019-05-14T06:16:18.685Z,40.29
2019-05-14T06:18:48.404Z,40.73
2019-05-14T06:21:18.977Z,40.85
2019-05-14T06:23:49.039Z,40.01
2019-05-14T06:26:19.097Z,39.58
2019-05-14T06:28:49.542Z,40.02
2019-05-14T06:31:19.229Z,39.98
2019-05-14T06:33:48.685Z,40.85
2019-05-14T06:36:19.406Z,41.41
2019-05-14T06:38:49.437Z,41.79
2019-05-14T06:41:19.177Z,41.39
2019-05-14T06:43:48.687Z,41.60
2019-05-14T06:46:19.436Z,41.57
2019-05-14T06:48:48.622Z,41.35
2019-05-14T06:51:19.972Z,40.73
2019-05-14T06:53:49.798Z,40.62
2019-05-14T06:56:21.331Z,40.30
2019-05-14T06:58:49.086Z,40.70
2019-05-14T07:01:18.513Z,41.01
2019-05-14T07:03:48.972Z,40.36
2019-05-14T07:06:18.589Z,40.93
2019-05-14T07:08:48.705Z,41.42
2019-05-14T07:11:19.080Z,40.96
2019-05-14T07:13:49.133Z,41.24
2019-05-14T07:16:19.756Z,40.94
2019-05-14T07:18:53.466Z,40.68
2019-05-14T07:21:18.655Z,40.78
2019-05-14T07:23:48.983Z,41.01
2019-05-14T07:26:19.288Z,41.74
2019-05-14T07:28:48.781Z,41.97
2019-05-14T07:31:18.578Z,41.48
2019-05-14T07:33:49.250Z,41.60
2019-05-14T07:36:18.878Z,41.53
2019-05-14T07:38:48.887Z,41.09
2019-05-14T07:41:19.242Z,42.17
2019-05-14T07:43:48.403Z,41.93
2019-05-14T07:46:19.222Z,41.39
2019-05-14T07:49:03.443Z,40.41
2019-05-14T07:51:19.004Z,41.46
2019-05-14T07:53:48.780Z,41.01
2019-05-14T07:56:18.790Z,39.90
2019-05-14T07:58:49.116Z,38.94
2019-05-14T08:01:18.760Z,38.41
2019-05-14T08:03:48.780Z,37.78
2019-05-14T08:06:18.973Z,36.84
2019-05-14T08:08:49.296Z,36.49
2019-05-14T08:11:19.129Z,36.49
2019-05-14T08:13:49.396Z,35.96
2019-05-14T08:16:18.638Z,36.30
2019-05-14T08:18:48.764Z,36.01
2019-05-14T08:21:19.295Z,36.37
2019-05-14T08:23:48.151Z,34.76
2019-05-14T08:26:19.085Z,34.91
2019-05-14T08:28:48.814Z,34.23
2019-05-14T08:31:18.668Z,35.01
2019-05-14T08:33:48.807Z,35.27
2019-05-14T08:36:18.389Z,35.15
2019-05-14T08:38:49.956Z,35.78
2019-05-14T08:41:19.730Z,35.56
2019-05-14T08:43:48.926Z,35.40
2019-05-14T08:46:19.255Z,34.70
2019-05-14T08:48:49.701Z,34.15
2019-05-14T08:51:18.606Z,34.22
2019-05-14T08:53:50.394Z,34.97
2019-05-14T08:56:19.215Z,34.97
2019-05-14T08:58:49.476Z,34.51
2019-05-14T09:01:19.529Z,33.79
2019-05-14T09:03:49.131Z,31.76
2019-05-14T09:06:18.711Z,32.21
2019-05-14T09:08:49.535Z,30.70
2019-05-14T09:11:24.498Z,31.33
2019-05-14T09:13:49.117Z,32.22
2019-05-14T09:16:19.410Z,32.52
2019-05-14T09:18:49.135Z,32.98
2019-05-14T09:21:20.227Z,33.41
2019-05-14T09:23:48.282Z,33.52
2019-05-14T09:26:18.146Z,32.55
2019-05-14T09:28:48.218Z,32.17
2019-05-14T09:31:19.373Z,31.66
2019-05-14T09:33:49.420Z,31.44
2019-05-14T09:36:20.517Z,30.79
2019-05-14T09:38:49.266Z,31.56
2019-05-14T09:41:18.582Z,31.72
2019-05-14T09:43:48.735Z,31.54
2019-05-14T09:46:20.722Z,30.50
2019-05-14T09:48:49.154Z,30.48
2019-05-14T09:51:18.429Z,31.12
2019-05-14T09:53:49.016Z,31.40
2019-05-14T09:56:18.690Z,31.62
2019-05-14T09:58:49.484Z,31.63
2019-05-14T10:01:19.643Z,31.67
2019-05-14T10:03:49.525Z,30.17
2019-05-14T10:06:20.778Z,29.51
2019-05-14T10:08:48.720Z,29.56
2019-05-14T10:11:17.101Z,30.18
2019-05-14T10:13:45.407Z,29.95
2019-05-14T10:16:14.295Z,30.23
2019-05-14T10:18:42.855Z,30.97
2019-05-14T10:21:11.256Z,30.65
2019-05-14T10:23:39.652Z,30.42
2019-05-14T10:26:09.156Z,30.07
2019-05-14T10:28:41.194Z,29.99
2019-05-14T10:31:09.424Z,29.58
2019-05-14T10:33:38.024Z,29.78
2019-05-14T10:36:09.028Z,29.48
2019-05-14T10:38:38.742Z,29.28
2019-05-14T10:41:09.047Z,29.83
2019-05-14T10:43:39.144Z,29.51
2019-05-14T10:46:09.136Z,29.88
2019-05-14T10:48:39.479Z,30.16
2019-05-14T10:51:09.657Z,30.63
2019-05-14T10:53:37.406Z,30.66
2019-05-14T10:56:06.105Z,30.27
2019-05-14T10:58:34.563Z,29.70
2019-05-14T11:01:03.046Z,29.75
2019-05-14T11:03:31.351Z,29.00
2019-05-14T11:05:59.637Z,29.05
2019-05-14T11:08:29.676Z,29.56
2019-05-14T11:11:03.664Z,29.98
2019-05-14T11:13:29.190Z,30.08
2019-05-14T11:15:59.587Z,29.17
2019-05-14T11:18:29.074Z,29.54
2019-05-14T11:21:18.011Z,30.22
2019-05-14T11:23:29.731Z,29.45
2019-05-14T11:25:58.274Z,29.45
2019-05-14T11:28:28.694Z,29.84
2019-05-14T11:30:56.951Z,29.38
2019-05-14T11:33:25.350Z,29.25
2019-05-14T11:35:53.892Z,29.56
2019-05-14T11:38:33.832Z,29.23
2019-05-14T11:40:52.992Z,28.77
2019-05-14T11:43:21.604Z,28.46
2019-05-14T11:45:50.052Z,28.84
2019-05-14T11:48:19.378Z,28.40
2019-05-14T11:50:49.180Z,27.10
2019-05-14T11:53:19.843Z,27.53
2019-05-14T11:55:50.242Z,28.09
2019-05-14T11:58:20.969Z,27.85
2019-05-14T12:00:48.519Z,27.02
2019-05-14T12:03:19.547Z,25.98
2019-05-14T12:05:49.419Z,25.42
2019-05-14T12:08:18.583Z,26.09
2019-05-14T12:10:47.149Z,25.60
2019-05-14T12:13:15.510Z,26.03
2019-05-14T12:15:43.975Z,26.14
2019-05-14T12:18:12.296Z,26.64
2019-05-14T12:20:40.696Z,27.08
2019-05-14T12:23:09.115Z,27.21
2019-05-14T12:25:37.415Z,27.32
2019-05-14T12:28:05.722Z,27.42
2019-05-14T12:30:35.016Z,27.14
2019-05-14T12:33:03.389Z,25.85
2019-05-14T12:35:31.715Z,25.28
2019-05-14T12:38:00.024Z,24.02
2019-05-14T12:40:28.988Z,24.82
2019-05-14T12:42:59.082Z,24.97
2019-05-14T12:45:29.911Z,25.06
2019-05-14T12:47:58.547Z,25.65
2019-05-14T12:50:27.071Z,25.55
2019-05-14T12:52:55.407Z,25.90
2019-05-14T12:55:23.758Z,26.03
2019-05-14T12:57:52.265Z,26.25
2019-05-14T13:00:20.827Z,26.48
2019-05-14T13:02:50.985Z,27.05
2019-05-14T13:05:19.322Z,27.23
2019-05-14T13:07:50.791Z,26.68
2019-05-14T13:10:18.829Z,25.85
2019-05-14T13:12:48.422Z,26.19
2019-05-14T13:15:17.017Z,26.43
2019-05-14T13:17:45.484Z,24.95
2019-05-14T13:20:14.399Z,25.19
2019-05-14T13:22:46.310Z,25.32
2019-05-14T13:25:12.944Z,25.34
2019-05-14T13:27:41.293Z,24.77
2019-05-14T13:30:10.122Z,23.78
2019-05-14T13:32:39.658Z,23.98
2019-05-14T13:35:13.019Z,24.66
2019-05-14T13:37:39.846Z,24.92
2019-05-14T13:40:09.368Z,25.05
2019-05-14T13:42:39.900Z,24.96
2019-05-14T13:45:10.223Z,25.00
2019-05-14T13:47:38.861Z,25.65
2019-05-14T13:50:08.487Z,26.53
2019-05-14T13:52:40.553Z,26.64
2019-05-14T13:55:09.764Z,26.25
2019-05-14T13:57:39.926Z,26.19
2019-05-14T14:00:11.950Z,25.35
2019-05-14T14:02:39.824Z,24.69
2019-05-14T14:05:08.816Z,24.71
2019-05-14T14:07:39.483Z,24.70
2019-05-14T14:10:09.073Z,24.26
2019-05-14T14:12:40.458Z,24.63
2019-05-14T14:15:09.497Z,24.46
2019-05-14T14:17:39.163Z,24.42
2019-05-14T14:20:08.889Z,23.79
2019-05-14T14:22:40.101Z,23.13
2019-05-14T14:25:08.914Z,23.14
2019-05-14T14:27:40.616Z,24.47
2019-05-14T14:30:09.294Z,25.55
2019-05-14T14:32:40.685Z,25.44
2019-05-14T14:35:09.352Z,25.79
2019-05-14T14:37:39.843Z,25.50
2019-05-14T14:40:10.567Z,25.05
2019-05-14T14:42:40.135Z,24.76
2019-05-14T14:45:09.628Z,25.19
2019-05-14T14:47:39.361Z,24.98
2019-05-14T14:50:09.365Z,25.16
2019-05-14T14:52:37.782Z,25.52
2019-05-14T14:55:06.848Z,25.28
2019-05-14T14:57:35.174Z,25.29
2019-05-14T15:00:04.512Z,25.07
2019-05-14T15:02:32.811Z,25.08
2019-05-14T15:05:01.219Z,24.06
2019-05-14T15:07:30.278Z,24.65
2019-05-14T15:09:59.614Z,24.15
2019-05-14T15:12:29.120Z,24.14
2019-05-14T15:14:59.339Z,24.96
2019-05-14T15:17:29.494Z,25.27
2019-05-14T15:19:59.401Z,25.80
2019-05-14T15:22:30.893Z,26.16
2019-05-14T15:24:58.808Z,26.35
2019-05-14T15:27:28.311Z,25.83
2019-05-14T15:29:59.392Z,24.81
2019-05-14T15:32:30.020Z,25.43
2019-05-14T15:34:59.333Z,25.85
2019-05-14T15:37:28.509Z,26.10
2019-05-14T15:39:58.998Z,26.96
2019-05-14T15:42:28.376Z,27.36
2019-05-14T15:44:59.825Z,27.13
2019-05-14T15:47:29.474Z,27.06
2019-05-14T15:49:59.299Z,27.07
2019-05-14T15:52:29.124Z,27.65
2019-05-14T15:54:57.352Z,28.05
2019-05-14T15:57:28.632Z,28.39
2019-05-14T15:59:55.841Z,27.91
2019-05-14T16:02:24.243Z,27.79
2019-05-14T16:04:52.617Z,27.47
2019-05-14T16:07:21.173Z,27.95
2019-05-14T16:09:49.732Z,28.56
2019-05-14T16:12:19.648Z,28.27
2019-05-14T16:14:49.074Z,28.68
2019-05-14T16:17:25.113Z,29.02
2019-05-14T16:19:48.699Z,29.18
2019-05-14T16:22:19.424Z,29.25
2019-05-14T16:24:56.582Z,29.33
2019-05-14T16:27:19.727Z,29.77
2019-05-14T16:29:47.611Z,29.54
2019-05-14T16:32:16.149Z,29.23
2019-05-14T16:34:44.648Z,29.08
2019-05-14T16:37:13.062Z,28.77
2019-05-14T16:39:41.375Z,29.08
2019-05-14T16:42:10.158Z,28.87
2019-05-14T16:44:39.140Z,28.65
2019-05-14T16:47:09.924Z,28.59
2019-05-14T16:49:38.071Z,28.61
2019-05-14T16:52:09.187Z,28.70
2019-05-14T16:54:39.312Z,29.05
2019-05-14T16:57:11.151Z,29.53
2019-05-14T16:59:39.497Z,29.82
2019-05-14T17:02:09.174Z,29.89
2019-05-14T17:04:38.723Z,29.86
2019-05-14T17:07:09.574Z,30.18
2019-05-14T17:09:38.490Z,30.41
2019-05-14T17:12:08.502Z,30.43
2019-05-14T17:14:38.481Z,30.31
2019-05-14T17:17:09.099Z,30.21
2019-05-14T17:19:38.593Z,30.29
2019-05-14T17:22:23.266Z,30.64
2019-05-14T17:24:39.861Z,30.28
2019-05-14T17:27:08.813Z,30.18
2019-05-14T17:29:38.888Z,29.88
2019-05-14T17:32:07.411Z,29.81
2019-05-14T17:34:38.403Z,29.89
2019-05-14T17:37:08.720Z,29.95
2019-05-14T17:39:38.514Z,29.81
2019-05-14T17:42:11.370Z,29.63
2019-05-14T17:44:38.662Z,29.73
2019-05-14T17:47:06.611Z,29.94
2019-05-14T17:49:35.004Z,30.32
2019-05-14T17:52:05.292Z,30.33
2019-05-14T17:54:33.783Z,30.81
2019-05-14T17:57:02.126Z,30.96
2019-05-14T17:59:33.440Z,30.85
2019-05-14T18:02:00.724Z,31.17
2019-05-14T18:04:29.133Z,31.51
2019-05-14T18:06:59.253Z,31.61
2019-05-14T18:09:29.346Z,31.82
2019-05-14T18:11:58.662Z,31.76
2019-05-14T18:14:28.430Z,31.70
2019-05-14T18:16:58.501Z,31.89
2019-05-14T18:19:28.995Z,31.80
2019-05-14T18:21:59.321Z,32.09
2019-05-14T18:24:28.542Z,32.27
2019-05-14T18:26:57.189Z,32.28
2019-05-14T18:29:25.561Z,32.25
2019-05-14T18:31:54.954Z,32.52
2019-05-14T18:34:23.835Z,32.52
2019-05-14T18:36:52.246Z,32.80
2019-05-14T18:39:21.438Z,32.92
2019-05-14T18:41:50.098Z,33.16
2019-05-14T18:44:19.060Z,33.13
2019-05-14T18:46:48.698Z,33.25
2019-05-14T18:49:19.454Z,33.33
2019-05-14T18:51:49.901Z,33.19
2019-05-14T18:54:17.488Z,33.22
2019-05-14T18:56:48.741Z,33.25
2019-05-14T18:59:20.966Z,33.24
2019-05-14T19:01:49.258Z,33.29
2019-05-14T19:04:18.525Z,33.53
2019-05-14T19:06:48.278Z,33.77
2019-05-14T19:09:18.630Z,33.69
2019-05-14T19:11:48.291Z,34.11
2019-05-14T19:14:18.776Z,34.16
2019-05-14T19:16:49.032Z,34.11
2019-05-14T19:19:17.505Z,34.12
2019-05-14T19:21:45.956Z,34.43
2019-05-14T19:24:14.344Z,34.64
2019-05-14T19:26:43.098Z,34.75
2019-05-14T19:29:11.656Z,34.75
2019-05-14T19:31:40.539Z,34.77
2019-05-14T19:34:08.836Z,34.97
2019-05-14T19:36:37.315Z,35.05
2019-05-14T19:39:07.887Z,35.04
2019-05-14T19:41:38.802Z,35.18
2019-05-14T19:44:08.708Z,35.17
2019-05-14T19:46:38.652Z,35.29
2019-05-14T19:49:08.108Z,35.26
2019-05-14T19:51:38.547Z,35.13
2019-05-14T19:54:08.137Z,35.30
2019-05-14T19:56:52.372Z,35.20
2019-05-14T19:59:09.087Z,35.37
2019-05-14T20:01:38.558Z,35.63
2019-05-14T20:04:09.609Z,35.80
2019-05-14T20:06:38.875Z,36.23
2019-05-14T20:09:09.475Z,36.32
2019-05-14T20:11:39.668Z,36.42
2019-05-14T20:14:08.315Z,36.75
2019-05-14T20:16:39.043Z,37.25
2019-05-14T20:19:08.812Z,37.49
2019-05-14T20:21:38.924Z,37.63
2019-05-14T20:24:07.184Z,38.05
2019-05-14T20:26:35.576Z,38.41
2019-05-14T20:29:04.031Z,38.38
2019-05-14T20:31:32.556Z,38.54
2019-05-14T20:34:01.000Z,38.57
2019-05-14T20:36:29.288Z,38.89
2019-05-14T20:38:58.894Z,39.00
2019-05-14T20:41:28.740Z,39.42
2019-05-14T20:43:58.595Z,39.62
2019-05-14T20:46:28.536Z,39.87
2019-05-14T20:48:59.201Z,40.01
2019-05-14T20:51:28.277Z,40.18
2019-05-14T20:53:58.065Z,40.35
2019-05-14T20:56:28.382Z,40.33
2019-05-14T20:58:58.884Z,40.61
2019-05-14T21:01:29.100Z,40.72
2019-05-14T21:03:59.207Z,40.99
2019-05-14T21:06:28.042Z,40.92
2019-05-14T21:08:58.480Z,41.02
2019-05-14T21:11:28.647Z,41.02
2019-05-14T21:13:58.185Z,41.28
2019-05-14T21:16:28.300Z,41.39
2019-05-14T21:18:59.080Z,41.62
2019-05-14T21:21:28.284Z,41.69
2019-05-14T21:23:58.641Z,41.98
2019-05-14T21:26:29.047Z,42.20
2019-05-14T21:28:58.318Z,42.34
2019-05-14T21:31:28.442Z,42.49
2019-05-14T21:33:58.703Z,42.58
2019-05-14T21:36:28.392Z,42.84
2019-05-14T21:38:58.622Z,43.11
2019-05-14T21:41:29.011Z,43.12
2019-05-14T21:43:58.465Z,43.43
2019-05-14T21:46:28.833Z,43.71
2019-05-14T21:48:58.548Z,43.53
2019-05-14T21:51:28.346Z,43.79
2019-05-14T21:53:58.827Z,43.87
2019-05-14T21:56:29.096Z,44.04
2019-05-14T21:59:01.054Z,44.10
2019-05-14T22:01:27.764Z,43.97
2019-05-14T22:03:59.269Z,44.65
2019-05-14T22:06:29.083Z,44.34
2019-05-14T22:08:59.158Z,44.23
2019-05-14T22:11:28.255Z,44.16
2019-05-14T22:13:58.326Z,44.09
2019-05-14T22:16:28.144Z,44.09
2019-05-14T22:18:56.620Z,44.25
2019-05-14T22:21:24.930Z,44.56
2019-05-14T22:23:53.324Z,44.91
2019-05-14T22:26:21.736Z,45.11
2019-05-14T22:28:50.121Z,45.39
2019-05-14T22:31:19.239Z,45.38
2019-05-14T22:33:47.732Z,45.42
2019-05-14T22:36:20.959Z,45.47
2019-05-14T22:38:48.193Z,45.45
2019-05-14T22:41:18.362Z,45.89
2019-05-14T22:43:51.098Z,45.91
2019-05-14T22:46:18.096Z,45.93
2019-05-14T22:48:48.910Z,45.96
2019-05-14T22:51:18.284Z,46.18
2019-05-14T22:53:46.851Z,46.33
2019-05-14T22:56:15.212Z,46.02
2019-05-14T22:58:43.608Z,46.16
2019-05-14T23:01:14.927Z,46.19
2019-05-14T23:03:42.114Z,46.64
2019-05-14T23:06:10.471Z,46.63
2019-05-14T23:08:39.328Z,47.77
2019-05-14T23:11:08.654Z,47.43
2019-05-14T23:13:39.223Z,47.70
2019-05-14T23:16:08.243Z,47.76
2019-05-14T23:18:38.016Z,48.15
2019-05-14T23:21:08.964Z,48.01
2019-05-14T23:23:39.035Z,48.26
2019-05-14T23:26:08.653Z,48.11
2019-05-14T23:28:42.571Z,48.38
2019-05-14T23:31:08.435Z,48.21
2019-05-14T23:33:38.806Z,48.54
2019-05-14T23:36:08.816Z,48.86
2019-05-14T23:38:38.739Z,48.73
2019-05-14T23:41:08.685Z,48.76
2019-05-14T23:43:39.065Z,48.85
2019-05-14T23:46:09.264Z,49.36
2019-05-14T23:48:39.147Z,49.66
2019-05-14T23:51:08.186Z,49.79
2019-05-14T23:53:38.843Z,49.80
2019-05-14T23:56:08.557Z,49.56
2019-05-14T23:58:37.245Z,49.42
